sensor_id;sensor_type;location;lat;lon;timestamp;P1;durP1;ratioP1;P2;durP2;ratioP2
40515;SDS011;26216;53.724;9.898;2022-09-09T00:01:57;13.32;;;11.35;;
40515;SDS011;26216;53.724;9.898;2022-09-09T00:04:34;11.68;;;10.18;;
40515;SDS011;26216;53.724;9.898;2022-09-09T00:10:06;11.32;;;8.95;;
40515;SDS011;26216;53.724;9.898;2022-09-09T00:15:39;10.40;;;9.30;;
40515;SDS011;26216;53.724;9.898;2022-09-09T00:21:06;11.02;;;9.20;;
40515;SDS011;26216;53.724;9.898;2022-09-09T00:23:53;8.55;;;7.65;;
40515;SDS011;26216;53.724;9.898;2022-09-09T00:32:16;7.38;;;6.63;;
40515;SDS011;26216;53.724;9.898;2022-09-09T00:34:51;8.02;;;7.22;;
40515;SDS011;26216;53.724;9.898;2022-09-09T00:37:20;8.27;;;7.32;;
40515;SDS011;26216;53.724;9.898;2022-09-09T00:39:50;7.82;;;7.03;;
40515;SDS011;26216;53.724;9.898;2022-09-09T00:45:12;8.60;;;7.45;;
40515;SDS011;26216;53.724;9.898;2022-09-09T00:48:10;7.20;;;6.50;;
40515;SDS011;26216;53.724;9.898;2022-09-09T00:53:22;7.90;;;6.30;;
40515;SDS011;26216;53.724;9.898;2022-09-09T00:58:53;6.82;;;6.13;;
40515;SDS011;26216;53.724;9.898;2022-09-09T01:01:25;7.60;;;6.68;;
40515;SDS011;26216;53.724;9.898;2022-09-09T01:06:33;6.82;;;6.13;;
40515;SDS011;26216;53.724;9.898;2022-09-09T01:14:51;7.93;;;7.13;;
40515;SDS011;26216;53.724;9.898;2022-09-09T01:17:23;7.90;;;7.10;;
40515;SDS011;26216;53.724;9.898;2022-09-09T01:20:03;7.05;;;6.35;;
40515;SDS011;26216;53.724;9.898;2022-09-09T01:22:34;7.78;;;6.88;;
40515;SDS011;26216;53.724;9.898;2022-09-09T01:27:53;8.20;;;7.40;;
40515;SDS011;26216;53.724;9.898;2022-09-09T01:30:22;8.38;;;7.40;;
40515;SDS011;26216;53.724;9.898;2022-09-09T01:32:50;7.40;;;6.65;;
40515;SDS011;26216;53.724;9.898;2022-09-09T01:35:28;7.68;;;6.85;;
40515;SDS011;26216;53.724;9.898;2022-09-09T01:38:04;7.85;;;7.05;;
40515;SDS011;26216;53.724;9.898;2022-09-09T01:40:31;10.25;;;7.85;;
40515;SDS011;26216;53.724;9.898;2022-09-09T01:42:57;8.40;;;7.28;;
40515;SDS011;26216;53.724;9.898;2022-09-09T01:45:23;8.77;;;7.60;;
40515;SDS011;26216;53.724;9.898;2022-09-09T01:47:50;11.77;;;10.30;;
40515;SDS011;26216;53.724;9.898;2022-09-09T01:50:17;11.25;;;9.75;;
40515;SDS011;26216;53.724;9.898;2022-09-09T01:52:45;12.48;;;9.35;;
40515;SDS011;26216;53.724;9.898;2022-09-09T01:55:14;10.30;;;8.60;;
40515;SDS011;26216;53.724;9.898;2022-09-09T01:57:47;12.68;;;9.75;;
40515;SDS011;26216;53.724;9.898;2022-09-09T02:00:25;11.02;;;9.40;;
40515;SDS011;26216;53.724;9.898;2022-09-09T02:03:04;11.80;;;9.95;;
40515;SDS011;26216;53.724;9.898;2022-09-09T02:06:40;9.40;;;8.10;;
40515;SDS011;26216;53.724;9.898;2022-09-09T02:08:50;9.73;;;8.30;;
40515;SDS011;26216;53.724;9.898;2022-09-09T02:11:22;9.70;;;8.20;;
40515;SDS011;26216;53.724;9.898;2022-09-09T02:13:54;8.93;;;7.70;;
40515;SDS011;26216;53.724;9.898;2022-09-09T02:16:31;10.63;;;9.35;;
40515;SDS011;26216;53.724;9.898;2022-09-09T02:21:38;9.83;;;8.20;;
40515;SDS011;26216;53.724;9.898;2022-09-09T02:24:07;9.68;;;8.25;;
40515;SDS011;26216;53.724;9.898;2022-09-09T02:26:37;9.45;;;8.32;;
40515;SDS011;26216;53.724;9.898;2022-09-09T02:29:12;9.93;;;8.35;;
40515;SDS011;26216;53.724;9.898;2022-09-09T02:31:47;9.23;;;8.23;;
40515;SDS011;26216;53.724;9.898;2022-09-09T02:34:17;8.52;;;7.63;;
40515;SDS011;26216;53.724;9.898;2022-09-09T02:36:45;9.30;;;8.27;;
40515;SDS011;26216;53.724;9.898;2022-09-09T02:39:13;9.50;;;7.60;;
40515;SDS011;26216;53.724;9.898;2022-09-09T02:41:40;9.88;;;7.95;;
40515;SDS011;26216;53.724;9.898;2022-09-09T02:44:16;10.82;;;8.20;;
40515;SDS011;26216;53.724;9.898;2022-09-09T02:49:31;8.98;;;8.07;;
40515;SDS011;26216;53.724;9.898;2022-09-09T02:52:04;9.82;;;8.68;;
40515;SDS011;26216;53.724;9.898;2022-09-09T02:54:40;9.05;;;8.15;;
40515;SDS011;26216;53.724;9.898;2022-09-09T02:59:53;9.57;;;8.60;;
40515;SDS011;26216;53.724;9.898;2022-09-09T03:02:22;8.82;;;7.93;;
40515;SDS011;26216;53.724;9.898;2022-09-09T03:04:47;8.82;;;7.93;;
40515;SDS011;26216;53.724;9.898;2022-09-09T03:07:17;9.02;;;8.10;;
40515;SDS011;26216;53.724;9.898;2022-09-09T03:09:46;9.50;;;8.10;;
40515;SDS011;26216;53.724;9.898;2022-09-09T03:12:12;9.32;;;8.25;;
40515;SDS011;26216;53.724;9.898;2022-09-09T03:14:38;9.43;;;8.02;;
40515;SDS011;26216;53.724;9.898;2022-09-09T03:17:04;9.57;;;8.13;;
40515;SDS011;26216;53.724;9.898;2022-09-09T03:19:31;9.70;;;8.48;;
40515;SDS011;26216;53.724;9.898;2022-09-09T03:21:57;9.90;;;8.63;;
40515;SDS011;26216;53.724;9.898;2022-09-09T03:24:23;10.75;;;8.05;;
40515;SDS011;26216;53.724;9.898;2022-09-09T03:26:50;9.43;;;8.02;;
40515;SDS011;26216;53.724;9.898;2022-09-09T03:29:16;9.07;;;7.93;;
40515;SDS011;26216;53.724;9.898;2022-09-09T03:31:43;8.75;;;7.63;;
40515;SDS011;26216;53.724;9.898;2022-09-09T03:34:09;9.18;;;8.18;;
40515;SDS011;26216;53.724;9.898;2022-09-09T03:36:36;9.02;;;7.82;;
40515;SDS011;26216;53.724;9.898;2022-09-09T03:39:02;10.43;;;8.48;;
40515;SDS011;26216;53.724;9.898;2022-09-09T03:41:29;10.38;;;9.27;;
40515;SDS011;26216;53.724;9.898;2022-09-09T03:43:55;9.23;;;7.85;;
40515;SDS011;26216;53.724;9.898;2022-09-09T03:46:22;9.40;;;8.40;;
40515;SDS011;26216;53.724;9.898;2022-09-09T03:48:49;10.07;;;8.30;;
40515;SDS011;26216;53.724;9.898;2022-09-09T03:51:16;10.20;;;8.70;;
40515;SDS011;26216;53.724;9.898;2022-09-09T03:53:42;9.73;;;8.35;;
40515;SDS011;26216;53.724;9.898;2022-09-09T03:56:08;8.98;;;7.70;;
40515;SDS011;26216;53.724;9.898;2022-09-09T03:58:35;8.02;;;7.10;;
40515;SDS011;26216;53.724;9.898;2022-09-09T04:01:03;8.48;;;7.07;;
40515;SDS011;26216;53.724;9.898;2022-09-09T04:03:38;7.78;;;6.97;;
40515;SDS011;26216;53.724;9.898;2022-09-09T04:06:05;10.05;;;7.45;;
40515;SDS011;26216;53.724;9.898;2022-09-09T04:08:33;8.10;;;7.30;;
40515;SDS011;26216;53.724;9.898;2022-09-09T04:11:00;7.80;;;6.78;;
40515;SDS011;26216;53.724;9.898;2022-09-09T04:13:30;8.45;;;7.28;;
40515;SDS011;26216;53.724;9.898;2022-09-09T04:15:57;8.93;;;7.28;;
40515;SDS011;26216;53.724;9.898;2022-09-09T04:18:24;8.45;;;7.55;;
40515;SDS011;26216;53.724;9.898;2022-09-09T04:20:51;9.73;;;8.23;;
40515;SDS011;26216;53.724;9.898;2022-09-09T04:23:19;10.25;;;7.95;;
40515;SDS011;26216;53.724;9.898;2022-09-09T04:25:46;8.60;;;7.57;;
40515;SDS011;26216;53.724;9.898;2022-09-09T04:28:14;7.53;;;6.72;;
40515;SDS011;26216;53.724;9.898;2022-09-09T04:30:41;8.15;;;7.15;;
40515;SDS011;26216;53.724;9.898;2022-09-09T04:33:07;7.75;;;6.25;;
40515;SDS011;26216;53.724;9.898;2022-09-09T04:35:35;8.40;;;7.28;;
40515;SDS011;26216;53.724;9.898;2022-09-09T04:38:01;8.35;;;7.45;;
40515;SDS011;26216;53.724;9.898;2022-09-09T04:40:28;9.07;;;7.35;;
40515;SDS011;26216;53.724;9.898;2022-09-09T04:42:55;8.48;;;7.60;;
40515;SDS011;26216;53.724;9.898;2022-09-09T04:45:24;8.75;;;7.82;;
40515;SDS011;26216;53.724;9.898;2022-09-09T04:47:51;11.50;;;10.30;;
40515;SDS011;26216;53.724;9.898;2022-09-09T04:50:18;9.45;;;7.78;;
40515;SDS011;26216;53.724;9.898;2022-09-09T04:52:44;8.73;;;7.82;;
40515;SDS011;26216;53.724;9.898;2022-09-09T04:55:10;8.55;;;7.65;;
40515;SDS011;26216;53.724;9.898;2022-09-09T04:57:36;9.55;;;7.50;;
40515;SDS011;26216;53.724;9.898;2022-09-09T05:00:02;8.48;;;7.55;;
40515;SDS011;26216;53.724;9.898;2022-09-09T05:02:29;8.80;;;7.80;;
40515;SDS011;26216;53.724;9.898;2022-09-09T05:04:55;8.20;;;6.90;;
40515;SDS011;26216;53.724;9.898;2022-09-09T05:07:21;9.35;;;6.90;;
40515;SDS011;26216;53.724;9.898;2022-09-09T05:09:47;9.18;;;7.32;;
40515;SDS011;26216;53.724;9.898;2022-09-09T05:12:15;9.60;;;7.40;;
40515;SDS011;26216;53.724;9.898;2022-09-09T05:14:44;9.85;;;7.70;;
40515;SDS011;26216;53.724;9.898;2022-09-09T05:17:10;8.95;;;7.60;;
40515;SDS011;26216;53.724;9.898;2022-09-09T05:19:36;9.05;;;7.15;;
40515;SDS011;26216;53.724;9.898;2022-09-09T05:22:02;9.70;;;7.88;;
40515;SDS011;26216;53.724;9.898;2022-09-09T05:24:29;8.68;;;7.30;;
40515;SDS011;26216;53.724;9.898;2022-09-09T05:26:58;7.38;;;6.63;;
40515;SDS011;26216;53.724;9.898;2022-09-09T05:29:26;8.50;;;6.43;;
40515;SDS011;26216;53.724;9.898;2022-09-09T05:31:52;7.55;;;6.75;;
40515;SDS011;26216;53.724;9.898;2022-09-09T05:34:18;8.57;;;7.00;;
40515;SDS011;26216;53.724;9.898;2022-09-09T05:36:46;8.27;;;6.95;;
40515;SDS011;26216;53.724;9.898;2022-09-09T05:39:12;9.93;;;7.22;;
40515;SDS011;26216;53.724;9.898;2022-09-09T05:41:38;7.63;;;6.53;;
40515;SDS011;26216;53.724;9.898;2022-09-09T05:44:05;8.82;;;7.13;;
40515;SDS011;26216;53.724;9.898;2022-09-09T05:46:31;8.13;;;7.20;;
40515;SDS011;26216;53.724;9.898;2022-09-09T05:48:57;7.53;;;6.18;;
40515;SDS011;26216;53.724;9.898;2022-09-09T05:51:24;7.43;;;6.45;;
40515;SDS011;26216;53.724;9.898;2022-09-09T05:53:51;8.82;;;6.20;;
40515;SDS011;26216;53.724;9.898;2022-09-09T05:56:24;7.40;;;6.00;;
40515;SDS011;26216;53.724;9.898;2022-09-09T06:01:20;6.05;;;5.43;;
40515;SDS011;26216;53.724;9.898;2022-09-09T06:03:48;7.15;;;5.78;;
40515;SDS011;26216;53.724;9.898;2022-09-09T06:06:15;6.15;;;5.45;;
40515;SDS011;26216;53.724;9.898;2022-09-09T06:08:43;6.82;;;5.63;;
40515;SDS011;26216;53.724;9.898;2022-09-09T06:11:17;5.50;;;4.85;;
40515;SDS011;26216;53.724;9.898;2022-09-09T06:13:53;6.50;;;5.03;;
40515;SDS011;26216;53.724;9.898;2022-09-09T06:16:20;7.03;;;5.22;;
40515;SDS011;26216;53.724;9.898;2022-09-09T06:18:51;6.28;;;4.97;;
40515;SDS011;26216;53.724;9.898;2022-09-09T06:21:21;6.38;;;4.65;;
40515;SDS011;26216;53.724;9.898;2022-09-09T06:23:51;5.95;;;5.35;;
40515;SDS011;26216;53.724;9.898;2022-09-09T06:26:19;5.55;;;4.57;;
40515;SDS011;26216;53.724;9.898;2022-09-09T06:28:48;5.05;;;4.20;;
40515;SDS011;26216;53.724;9.898;2022-09-09T06:31:16;5.95;;;4.70;;
40515;SDS011;26216;53.724;9.898;2022-09-09T06:38:59;4.40;;;3.83;;
40515;SDS011;26216;53.724;9.898;2022-09-09T06:41:27;4.70;;;3.90;;
40515;SDS011;26216;53.724;9.898;2022-09-09T06:43:54;4.20;;;3.80;;
40515;SDS011;26216;53.724;9.898;2022-09-09T06:46:24;5.32;;;4.28;;
40515;SDS011;26216;53.724;9.898;2022-09-09T06:49:00;4.40;;;3.78;;
40515;SDS011;26216;53.724;9.898;2022-09-09T06:51:31;4.95;;;3.63;;
40515;SDS011;26216;53.724;9.898;2022-09-09T06:54:00;4.57;;;3.78;;
40515;SDS011;26216;53.724;9.898;2022-09-09T06:56:37;4.85;;;3.83;;
40515;SDS011;26216;53.724;9.898;2022-09-09T06:59:07;4.32;;;3.60;;
40515;SDS011;26216;53.724;9.898;2022-09-09T07:01:35;3.60;;;2.85;;
40515;SDS011;26216;53.724;9.898;2022-09-09T07:04:02;3.70;;;3.08;;
40515;SDS011;26216;53.724;9.898;2022-09-09T07:06:33;4.20;;;3.10;;
40515;SDS011;26216;53.724;9.898;2022-09-09T07:09:05;4.80;;;3.65;;
40515;SDS011;26216;53.724;9.898;2022-09-09T07:11:36;3.20;;;2.70;;
40515;SDS011;26216;53.724;9.898;2022-09-09T07:14:08;4.53;;;2.70;;
40515;SDS011;26216;53.724;9.898;2022-09-09T07:16:38;4.55;;;2.65;;
40515;SDS011;26216;53.724;9.898;2022-09-09T07:19:04;3.72;;;2.85;;
40515;SDS011;26216;53.724;9.898;2022-09-09T07:21:31;3.97;;;2.72;;
40515;SDS011;26216;53.724;9.898;2022-09-09T07:23:57;3.85;;;2.60;;
40515;SDS011;26216;53.724;9.898;2022-09-09T07:26:24;2.90;;;2.60;;
40515;SDS011;26216;53.724;9.898;2022-09-09T07:28:52;3.28;;;2.40;;
40515;SDS011;26216;53.724;9.898;2022-09-09T07:31:23;3.50;;;2.60;;
40515;SDS011;26216;53.724;9.898;2022-09-09T07:33:51;3.38;;;2.17;;
40515;SDS011;26216;53.724;9.898;2022-09-09T07:36:21;2.88;;;2.20;;
40515;SDS011;26216;53.724;9.898;2022-09-09T07:38:49;2.95;;;2.17;;
40515;SDS011;26216;53.724;9.898;2022-09-09T07:41:24;3.30;;;2.20;;
40515;SDS011;26216;53.724;9.898;2022-09-09T07:43:59;3.15;;;2.05;;
40515;SDS011;26216;53.724;9.898;2022-09-09T07:46:29;2.45;;;1.70;;
40515;SDS011;26216;53.724;9.898;2022-09-09T07:48:56;2.83;;;1.90;;
40515;SDS011;26216;53.724;9.898;2022-09-09T07:51:24;2.42;;;1.80;;
40515;SDS011;26216;53.724;9.898;2022-09-09T07:53:56;2.65;;;1.73;;
40515;SDS011;26216;53.724;9.898;2022-09-09T07:56:24;3.17;;;1.70;;
40515;SDS011;26216;53.724;9.898;2022-09-09T07:58:52;2.92;;;1.80;;
40515;SDS011;26216;53.724;9.898;2022-09-09T08:01:21;2.70;;;1.70;;
40515;SDS011;26216;53.724;9.898;2022-09-09T08:03:54;2.92;;;1.67;;
40515;SDS011;26216;53.724;9.898;2022-09-09T08:06:38;2.28;;;1.52;;
40515;SDS011;26216;53.724;9.898;2022-09-09T08:09:05;3.72;;;1.83;;
40515;SDS011;26216;53.724;9.898;2022-09-09T08:11:32;2.20;;;1.58;;
40515;SDS011;26216;53.724;9.898;2022-09-09T08:14:01;3.30;;;2.03;;
40515;SDS011;26216;53.724;9.898;2022-09-09T08:16:29;2.00;;;1.73;;
40515;SDS011;26216;53.724;9.898;2022-09-09T08:18:57;2.63;;;1.80;;
40515;SDS011;26216;53.724;9.898;2022-09-09T08:21:24;2.35;;;1.70;;
40515;SDS011;26216;53.724;9.898;2022-09-09T08:26:23;2.72;;;1.70;;
40515;SDS011;26216;53.724;9.898;2022-09-09T08:28:57;2.70;;;1.80;;
40515;SDS011;26216;53.724;9.898;2022-09-09T08:31:27;5.35;;;2.30;;
40515;SDS011;26216;53.724;9.898;2022-09-09T08:33:55;3.00;;;1.60;;
40515;SDS011;26216;53.724;9.898;2022-09-09T08:36:23;3.20;;;1.88;;
40515;SDS011;26216;53.724;9.898;2022-09-09T08:38:55;3.65;;;1.98;;
40515;SDS011;26216;53.724;9.898;2022-09-09T08:44:35;2.90;;;1.92;;
40515;SDS011;26216;53.724;9.898;2022-09-09T08:47:24;4.47;;;1.80;;
40515;SDS011;26216;53.724;9.898;2022-09-09T08:52:53;3.58;;;1.90;;
40515;SDS011;26216;53.724;9.898;2022-09-09T08:57:58;2.10;;;1.63;;
40515;SDS011;26216;53.724;9.898;2022-09-09T09:03:14;2.80;;;1.98;;
40515;SDS011;26216;53.724;9.898;2022-09-09T09:05:54;2.30;;;1.52;;
40515;SDS011;26216;53.724;9.898;2022-09-09T09:08:59;2.92;;;2.33;;
40515;SDS011;26216;53.724;9.898;2022-09-09T09:11:25;2.65;;;1.50;;
40515;SDS011;26216;53.724;9.898;2022-09-09T09:13:55;2.78;;;1.83;;
40515;SDS011;26216;53.724;9.898;2022-09-09T09:19:08;2.53;;;1.80;;
40515;SDS011;26216;53.724;9.898;2022-09-09T09:21:41;2.35;;;1.50;;
40515;SDS011;26216;53.724;9.898;2022-09-09T09:24:15;2.15;;;1.42;;
40515;SDS011;26216;53.724;9.898;2022-09-09T09:26:48;2.63;;;1.48;;
40515;SDS011;26216;53.724;9.898;2022-09-09T09:29:16;2.53;;;1.42;;
40515;SDS011;26216;53.724;9.898;2022-09-09T09:31:55;1.50;;;1.30;;
40515;SDS011;26216;53.724;9.898;2022-09-09T09:34:27;2.22;;;1.50;;
40515;SDS011;26216;53.724;9.898;2022-09-09T09:36:57;2.58;;;1.42;;
40515;SDS011;26216;53.724;9.898;2022-09-09T09:39:29;1.30;;;0.90;;
40515;SDS011;26216;53.724;9.898;2022-09-09T09:41:57;3.22;;;1.40;;
40515;SDS011;26216;53.724;9.898;2022-09-09T09:47:04;1.23;;;1.10;;
40515;SDS011;26216;53.724;9.898;2022-09-09T09:49:36;1.95;;;1.20;;
40515;SDS011;26216;53.724;9.898;2022-09-09T09:52:05;2.28;;;1.20;;
40515;SDS011;26216;53.724;9.898;2022-09-09T09:54:33;2.33;;;1.15;;
40515;SDS011;26216;53.724;9.898;2022-09-09T09:57:13;1.65;;;0.95;;
40515;SDS011;26216;53.724;9.898;2022-09-09T09:59:41;1.40;;;0.85;;
40515;SDS011;26216;53.724;9.898;2022-09-09T10:02:21;1.73;;;1.25;;
40515;SDS011;26216;53.724;9.898;2022-09-09T10:05:05;2.10;;;1.13;;
40515;SDS011;26216;53.724;9.898;2022-09-09T10:07:40;1.25;;;0.90;;
40515;SDS011;26216;53.724;9.898;2022-09-09T10:10:10;1.77;;;1.13;;
40515;SDS011;26216;53.724;9.898;2022-09-09T10:26:12;1.13;;;0.50;;
40515;SDS011;26216;53.724;9.898;2022-09-09T10:31:22;0.43;;;0.40;;
40515;SDS011;26216;53.724;9.898;2022-09-09T10:36:40;0.82;;;0.45;;
40515;SDS011;26216;53.724;9.898;2022-09-09T10:39:17;0.77;;;0.40;;
40515;SDS011;26216;53.724;9.898;2022-09-09T10:42:04;1.00;;;0.40;;
40515;SDS011;26216;53.724;9.898;2022-09-09T10:53:27;1.27;;;0.60;;
40515;SDS011;26216;53.724;9.898;2022-09-09T10:56:08;0.65;;;0.40;;
40515;SDS011;26216;53.724;9.898;2022-09-09T10:58:48;0.63;;;0.40;;
40515;SDS011;26216;53.724;9.898;2022-09-09T11:01:18;1.70;;;0.50;;
40515;SDS011;26216;53.724;9.898;2022-09-09T11:03:48;1.33;;;0.60;;
40515;SDS011;26216;53.724;9.898;2022-09-09T11:06:22;0.95;;;0.60;;
40515;SDS011;26216;53.724;9.898;2022-09-09T11:08:54;1.02;;;0.50;;
40515;SDS011;26216;53.724;9.898;2022-09-09T11:11:27;1.02;;;0.50;;
40515;SDS011;26216;53.724;9.898;2022-09-09T11:16:52;2.13;;;0.60;;
40515;SDS011;26216;53.724;9.898;2022-09-09T11:19:26;1.63;;;0.40;;
40515;SDS011;26216;53.724;9.898;2022-09-09T11:21:54;1.25;;;0.60;;
40515;SDS011;26216;53.724;9.898;2022-09-09T11:27:02;1.65;;;0.60;;
40515;SDS011;26216;53.724;9.898;2022-09-09T11:30:15;0.80;;;0.40;;
40515;SDS011;26216;53.724;9.898;2022-09-09T11:32:49;0.80;;;0.50;;
40515;SDS011;26216;53.724;9.898;2022-09-09T11:35:45;0.90;;;0.70;;
40515;SDS011;26216;53.724;9.898;2022-09-09T11:38:50;1.30;;;0.65;;
40515;SDS011;26216;53.724;9.898;2022-09-09T11:41:17;0.70;;;0.40;;
40515;SDS011;26216;53.724;9.898;2022-09-09T11:46:22;1.50;;;0.60;;
40515;SDS011;26216;53.724;9.898;2022-09-09T11:49:05;1.15;;;0.70;;
40515;SDS011;26216;53.724;9.898;2022-09-09T11:51:47;0.57;;;0.40;;
40515;SDS011;26216;53.724;9.898;2022-09-09T11:54:32;1.40;;;0.65;;
40515;SDS011;26216;53.724;9.898;2022-09-09T11:57:25;1.15;;;0.70;;
40515;SDS011;26216;53.724;9.898;2022-09-09T12:00:00;1.33;;;0.73;;
40515;SDS011;26216;53.724;9.898;2022-09-09T12:02:28;1.38;;;0.63;;
40515;SDS011;26216;53.724;9.898;2022-09-09T12:07:35;0.88;;;0.50;;
40515;SDS011;26216;53.724;9.898;2022-09-09T12:10:52;1.50;;;0.88;;
40515;SDS011;26216;53.724;9.898;2022-09-09T12:13:19;1.75;;;0.60;;
40515;SDS011;26216;53.724;9.898;2022-09-09T12:15:54;2.50;;;0.70;;
40515;SDS011;26216;53.724;9.898;2022-09-09T12:18:33;1.20;;;0.50;;
40515;SDS011;26216;53.724;9.898;2022-09-09T12:23:41;1.48;;;0.80;;
40515;SDS011;26216;53.724;9.898;2022-09-09T12:32:06;0.90;;;0.50;;
40515;SDS011;26216;53.724;9.898;2022-09-09T12:34:59;1.50;;;0.70;;
40515;SDS011;26216;53.724;9.898;2022-09-09T12:37:53;2.60;;;0.70;;
40515;SDS011;26216;53.724;9.898;2022-09-09T12:40:33;1.38;;;0.57;;
40515;SDS011;26216;53.724;9.898;2022-09-09T12:43:20;0.57;;;0.40;;
40515;SDS011;26216;53.724;9.898;2022-09-09T12:45:48;1.38;;;0.70;;
40515;SDS011;26216;53.724;9.898;2022-09-09T12:48:21;1.70;;;0.77;;
40515;SDS011;26216;53.724;9.898;2022-09-09T12:50:54;2.72;;;0.73;;
40515;SDS011;26216;53.724;9.898;2022-09-09T12:56:07;1.23;;;0.50;;
40515;SDS011;26216;53.724;9.898;2022-09-09T12:58:44;1.40;;;0.50;;
40515;SDS011;26216;53.724;9.898;2022-09-09T13:01:32;3.17;;;0.80;;
40515;SDS011;26216;53.724;9.898;2022-09-09T13:03:58;2.28;;;0.80;;
40515;SDS011;26216;53.724;9.898;2022-09-09T13:06:26;1.40;;;0.80;;
40515;SDS011;26216;53.724;9.898;2022-09-09T13:08:55;1.25;;;0.70;;
40515;SDS011;26216;53.724;9.898;2022-09-09T13:11:24;1.80;;;0.80;;
40515;SDS011;26216;53.724;9.898;2022-09-09T13:14:01;2.25;;;0.80;;
40515;SDS011;26216;53.724;9.898;2022-09-09T13:16:29;1.77;;;0.70;;
40515;SDS011;26216;53.724;9.898;2022-09-09T13:19:06;2.05;;;1.00;;
40515;SDS011;26216;53.724;9.898;2022-09-09T13:21:35;3.85;;;1.20;;
40515;SDS011;26216;53.724;9.898;2022-09-09T13:24:06;1.65;;;0.70;;
40515;SDS011;26216;53.724;9.898;2022-09-09T13:34:13;1.88;;;0.80;;
40515;SDS011;26216;53.724;9.898;2022-09-09T13:36:48;1.42;;;0.65;;
40515;SDS011;26216;53.724;9.898;2022-09-09T13:46:36;7.82;;;1.58;;
40515;SDS011;26216;53.724;9.898;2022-09-09T13:51:45;4.03;;;1.00;;
40515;SDS011;26216;53.724;9.898;2022-09-09T13:58:46;0.80;;;0.50;;
40515;SDS011;26216;53.724;9.898;2022-09-09T14:01:12;1.27;;;0.60;;
40515;SDS011;26216;53.724;9.898;2022-09-09T14:03:38;0.60;;;0.40;;
40515;SDS011;26216;53.724;9.898;2022-09-09T14:06:04;2.00;;;0.57;;
40515;SDS011;26216;53.724;9.898;2022-09-09T14:08:30;1.70;;;0.60;;
40515;SDS011;26216;53.724;9.898;2022-09-09T14:13:30;1.88;;;0.70;;
40515;SDS011;26216;53.724;9.898;2022-09-09T14:15:57;1.40;;;0.60;;
40515;SDS011;26216;53.724;9.898;2022-09-09T14:18:23;2.78;;;0.70;;
40515;SDS011;26216;53.724;9.898;2022-09-09T14:20:50;1.88;;;0.60;;
40515;SDS011;26216;53.724;9.898;2022-09-09T14:23:16;1.77;;;0.52;;
40515;SDS011;26216;53.724;9.898;2022-09-09T14:25:43;1.38;;;0.70;;
40515;SDS011;26216;53.724;9.898;2022-09-09T14:28:10;1.27;;;0.70;;
40515;SDS011;26216;53.724;9.898;2022-09-09T14:30:38;0.80;;;0.60;;
40515;SDS011;26216;53.724;9.898;2022-09-09T14:33:10;1.45;;;0.70;;
40515;SDS011;26216;53.724;9.898;2022-09-09T14:35:37;1.10;;;0.60;;
40515;SDS011;26216;53.724;9.898;2022-09-09T14:38:04;1.92;;;0.98;;
40515;SDS011;26216;53.724;9.898;2022-09-09T14:40:30;3.03;;;1.13;;
40515;SDS011;26216;53.724;9.898;2022-09-09T14:42:56;2.33;;;0.80;;
40515;SDS011;26216;53.724;9.898;2022-09-09T14:45:23;2.45;;;1.00;;
40515;SDS011;26216;53.724;9.898;2022-09-09T14:47:50;1.85;;;0.90;;
40515;SDS011;26216;53.724;9.898;2022-09-09T14:50:17;2.05;;;1.00;;
40515;SDS011;26216;53.724;9.898;2022-09-09T14:52:44;1.45;;;0.85;;
40515;SDS011;26216;53.724;9.898;2022-09-09T14:55:10;1.85;;;1.00;;
40515;SDS011;26216;53.724;9.898;2022-09-09T14:57:36;1.48;;;0.82;;
40515;SDS011;26216;53.724;9.898;2022-09-09T15:00:04;2.85;;;1.00;;
40515;SDS011;26216;53.724;9.898;2022-09-09T15:02:31;2.92;;;1.10;;
40515;SDS011;26216;53.724;9.898;2022-09-09T15:04:57;1.58;;;0.93;;
40515;SDS011;26216;53.724;9.898;2022-09-09T15:07:24;1.83;;;0.90;;
40515;SDS011;26216;53.724;9.898;2022-09-09T15:09:50;1.70;;;1.02;;
40515;SDS011;26216;53.724;9.898;2022-09-09T15:12:17;1.55;;;1.00;;
40515;SDS011;26216;53.724;9.898;2022-09-09T15:14:44;1.80;;;1.25;;
40515;SDS011;26216;53.724;9.898;2022-09-09T15:17:11;1.42;;;1.10;;
40515;SDS011;26216;53.724;9.898;2022-09-09T15:19:37;1.38;;;1.05;;
40515;SDS011;26216;53.724;9.898;2022-09-09T15:22:03;1.77;;;1.10;;
40515;SDS011;26216;53.724;9.898;2022-09-09T15:24:33;1.90;;;1.13;;
40515;SDS011;26216;53.724;9.898;2022-09-09T15:27:00;2.45;;;1.10;;
40515;SDS011;26216;53.724;9.898;2022-09-09T15:29:27;2.55;;;0.90;;
40515;SDS011;26216;53.724;9.898;2022-09-09T15:31:53;2.35;;;0.90;;
40515;SDS011;26216;53.724;9.898;2022-09-09T15:34:23;2.47;;;1.20;;
40515;SDS011;26216;53.724;9.898;2022-09-09T15:36:49;1.30;;;0.80;;
40515;SDS011;26216;53.724;9.898;2022-09-09T15:39:15;0.70;;;0.57;;
40515;SDS011;26216;53.724;9.898;2022-09-09T15:41:46;1.75;;;0.93;;
40515;SDS011;26216;53.724;9.898;2022-09-09T15:44:14;1.27;;;0.93;;
40515;SDS011;26216;53.724;9.898;2022-09-09T15:46:42;1.65;;;0.90;;
40515;SDS011;26216;53.724;9.898;2022-09-09T15:49:16;1.48;;;0.80;;
40515;SDS011;26216;53.724;9.898;2022-09-09T15:51:50;2.60;;;1.10;;
40515;SDS011;26216;53.724;9.898;2022-09-09T15:54:19;2.03;;;0.90;;
40515;SDS011;26216;53.724;9.898;2022-09-09T15:56:49;1.00;;;0.80;;
40515;SDS011;26216;53.724;9.898;2022-09-09T15:59:21;0.90;;;0.70;;
40515;SDS011;26216;53.724;9.898;2022-09-09T16:01:48;1.40;;;0.82;;
40515;SDS011;26216;53.724;9.898;2022-09-09T16:04:18;1.23;;;0.85;;
40515;SDS011;26216;53.724;9.898;2022-09-09T16:06:50;1.35;;;1.02;;
40515;SDS011;26216;53.724;9.898;2022-09-09T16:09:18;2.20;;;0.93;;
40515;SDS011;26216;53.724;9.898;2022-09-09T16:11:44;1.42;;;0.90;;
40515;SDS011;26216;53.724;9.898;2022-09-09T16:14:12;1.92;;;1.17;;
40515;SDS011;26216;53.724;9.898;2022-09-09T16:16:40;2.75;;;1.17;;
40515;SDS011;26216;53.724;9.898;2022-09-09T16:19:08;2.50;;;1.20;;
40515;SDS011;26216;53.724;9.898;2022-09-09T16:21:39;1.95;;;0.90;;
40515;SDS011;26216;53.724;9.898;2022-09-09T16:24:08;1.10;;;0.80;;
40515;SDS011;26216;53.724;9.898;2022-09-09T16:26:36;1.20;;;0.80;;
40515;SDS011;26216;53.724;9.898;2022-09-09T16:29:03;0.88;;;0.60;;
40515;SDS011;26216;53.724;9.898;2022-09-09T16:31:30;2.30;;;1.35;;
40515;SDS011;26216;53.724;9.898;2022-09-09T16:33:57;1.92;;;1.02;;
40515;SDS011;26216;53.724;9.898;2022-09-09T16:36:24;2.08;;;0.70;;
40515;SDS011;26216;53.724;9.898;2022-09-09T16:38:53;1.85;;;0.70;;
40515;SDS011;26216;53.724;9.898;2022-09-09T16:41:23;1.38;;;0.95;;
40515;SDS011;26216;53.724;9.898;2022-09-09T16:43:53;1.48;;;0.73;;
40515;SDS011;26216;53.724;9.898;2022-09-09T16:46:24;2.13;;;0.70;;
40515;SDS011;26216;53.724;9.898;2022-09-09T16:48:52;1.38;;;0.77;;
40515;SDS011;26216;53.724;9.898;2022-09-09T16:51:21;0.93;;;0.60;;
40515;SDS011;26216;53.724;9.898;2022-09-09T16:53:50;1.42;;;0.70;;
40515;SDS011;26216;53.724;9.898;2022-09-09T16:56:21;0.77;;;0.70;;
40515;SDS011;26216;53.724;9.898;2022-09-09T16:58:51;1.52;;;0.93;;
40515;SDS011;26216;53.724;9.898;2022-09-09T17:01:20;1.20;;;0.70;;
40515;SDS011;26216;53.724;9.898;2022-09-09T17:03:47;0.85;;;0.60;;
40515;SDS011;26216;53.724;9.898;2022-09-09T17:06:17;1.33;;;0.90;;
40515;SDS011;26216;53.724;9.898;2022-09-09T17:08:45;1.30;;;0.80;;
40515;SDS011;26216;53.724;9.898;2022-09-09T17:11:17;0.85;;;0.60;;
40515;SDS011;26216;53.724;9.898;2022-09-09T17:13:47;1.38;;;0.65;;
40515;SDS011;26216;53.724;9.898;2022-09-09T17:16:15;1.27;;;0.77;;
40515;SDS011;26216;53.724;9.898;2022-09-09T17:18:49;1.27;;;0.70;;
40515;SDS011;26216;53.724;9.898;2022-09-09T17:21:17;1.45;;;0.80;;
40515;SDS011;26216;53.724;9.898;2022-09-09T17:23:45;1.92;;;0.80;;
40515;SDS011;26216;53.724;9.898;2022-09-09T17:26:13;1.90;;;0.65;;
40515;SDS011;26216;53.724;9.898;2022-09-09T17:28:45;1.15;;;0.77;;
40515;SDS011;26216;53.724;9.898;2022-09-09T17:31:12;2.22;;;0.70;;